sensor_id;sensor_type;location;lat;lon;timestamp;P1;durP1;ratioP1;P2;durP2;ratioP2
11078;SDS011;5592;49.234;7.268;2023-04-03T00:02:05;3.67;;;2.50;;
11078;SDS011;5592;49.234;7.268;2023-04-03T00:04:30;5.73;;;3.20;;
11078;SDS011;5592;49.234;7.268;2023-04-03T00:06:56;3.83;;;2.60;;
11078;SDS011;5592;49.234;7.268;2023-04-03T00:09:22;3.20;;;2.33;;
11078;SDS011;5592;49.234;7.268;2023-04-03T00:11:47;6.90;;;2.70;;
11078;SDS011;5592;49.234;7.268;2023-04-03T00:14:13;4.40;;;2.40;;
11078;SDS011;5592;49.234;7.268;2023-04-03T00:16:38;4.03;;;2.27;;
11078;SDS011;5592;49.234;7.268;2023-04-03T00:19:04;3.10;;;2.37;;
11078;SDS011;5592;49.234;7.268;2023-04-03T00:21:30;2.33;;;2.10;;
11078;SDS011;5592;49.234;7.268;2023-04-03T00:23:56;2.23;;;1.93;;
11078;SDS011;5592;49.234;7.268;2023-04-03T00:26:22;2.53;;;2.23;;
11078;SDS011;5592;49.234;7.268;2023-04-03T00:28:47;2.83;;;2.20;;
11078;SDS011;5592;49.234;7.268;2023-04-03T00:31:16;2.80;;;2.60;;
11078;SDS011;5592;49.234;7.268;2023-04-03T00:33:42;2.97;;;2.50;;
11078;SDS011;5592;49.234;7.268;2023-04-03T00:36:08;3.20;;;2.47;;
11078;SDS011;5592;49.234;7.268;2023-04-03T00:38:35;4.87;;;2.77;;
11078;SDS011;5592;49.234;7.268;2023-04-03T00:41:01;4.37;;;2.97;;
11078;SDS011;5592;49.234;7.268;2023-04-03T00:43:27;4.00;;;2.70;;
11078;SDS011;5592;49.234;7.268;2023-04-03T00:45:54;4.70;;;2.70;;
11078;SDS011;5592;49.234;7.268;2023-04-03T00:48:22;2.80;;;2.60;;
11078;SDS011;5592;49.234;7.268;2023-04-03T00:50:58;4.40;;;2.60;;
11078;SDS011;5592;49.234;7.268;2023-04-03T00:53:26;3.07;;;2.20;;
11078;SDS011;5592;49.234;7.268;2023-04-03T00:56:07;6.17;;;2.43;;
11078;SDS011;5592;49.234;7.268;2023-04-03T00:58:47;2.37;;;2.13;;
11078;SDS011;5592;49.234;7.268;2023-04-03T01:01:18;3.13;;;2.70;;
11078;SDS011;5592;49.234;7.268;2023-04-03T01:03:48;4.00;;;2.50;;
11078;SDS011;5592;49.234;7.268;2023-04-03T01:06:15;2.30;;;2.10;;
11078;SDS011;5592;49.234;7.268;2023-04-03T01:08:43;2.47;;;2.27;;
11078;SDS011;5592;49.234;7.268;2023-04-03T01:11:11;2.80;;;2.30;;
11078;SDS011;5592;49.234;7.268;2023-04-03T01:13:37;3.27;;;2.40;;
11078;SDS011;5592;49.234;7.268;2023-04-03T01:16:03;2.60;;;2.40;;
11078;SDS011;5592;49.234;7.268;2023-04-03T01:18:30;4.33;;;2.60;;
11078;SDS011;5592;49.234;7.268;2023-04-03T01:23:47;6.23;;;2.63;;
11078;SDS011;5592;49.234;7.268;2023-04-03T01:26:20;3.50;;;2.70;;
11078;SDS011;5592;49.234;7.268;2023-04-03T01:28:46;3.50;;;2.70;;
11078;SDS011;5592;49.234;7.268;2023-04-03T01:33:49;3.27;;;2.97;;
11078;SDS011;5592;49.234;7.268;2023-04-03T01:36:20;2.67;;;2.30;;
11078;SDS011;5592;49.234;7.268;2023-04-03T01:38:54;4.10;;;3.10;;
11078;SDS011;5592;49.234;7.268;2023-04-03T01:41:20;4.00;;;2.23;;
11078;SDS011;5592;49.234;7.268;2023-04-03T01:43:46;4.10;;;3.00;;
11078;SDS011;5592;49.234;7.268;2023-04-03T01:46:13;4.33;;;2.80;;
11078;SDS011;5592;49.234;7.268;2023-04-03T01:48:40;3.27;;;2.40;;
11078;SDS011;5592;49.234;7.268;2023-04-03T01:51:05;3.93;;;2.87;;
11078;SDS011;5592;49.234;7.268;2023-04-03T01:53:31;3.40;;;2.57;;
11078;SDS011;5592;49.234;7.268;2023-04-03T01:55:57;2.73;;;2.50;;
11078;SDS011;5592;49.234;7.268;2023-04-03T01:58:22;3.90;;;2.70;;
11078;SDS011;5592;49.234;7.268;2023-04-03T02:00:48;5.30;;;2.33;;
11078;SDS011;5592;49.234;7.268;2023-04-03T02:03:14;3.97;;;2.60;;
11078;SDS011;5592;49.234;7.268;2023-04-03T02:05:40;2.70;;;2.50;;
11078;SDS011;5592;49.234;7.268;2023-04-03T02:08:05;2.40;;;2.20;;
11078;SDS011;5592;49.234;7.268;2023-04-03T02:10:31;3.70;;;2.73;;
11078;SDS011;5592;49.234;7.268;2023-04-03T02:12:57;3.67;;;2.80;;
11078;SDS011;5592;49.234;7.268;2023-04-03T02:15:23;3.20;;;2.60;;
11078;SDS011;5592;49.234;7.268;2023-04-03T02:17:51;5.87;;;2.40;;
11078;SDS011;5592;49.234;7.268;2023-04-03T02:20:17;3.50;;;2.60;;
11078;SDS011;5592;49.234;7.268;2023-04-03T02:22:43;4.23;;;3.00;;
11078;SDS011;5592;49.234;7.268;2023-04-03T02:25:09;3.57;;;2.47;;
11078;SDS011;5592;49.234;7.268;2023-04-03T02:27:35;2.90;;;2.50;;
11078;SDS011;5592;49.234;7.268;2023-04-03T02:30:01;4.33;;;1.90;;
11078;SDS011;5592;49.234;7.268;2023-04-03T02:32:28;3.80;;;2.20;;
11078;SDS011;5592;49.234;7.268;2023-04-03T02:34:54;3.67;;;2.27;;
11078;SDS011;5592;49.234;7.268;2023-04-03T02:37:20;7.47;;;2.90;;
11078;SDS011;5592;49.234;7.268;2023-04-03T02:39:46;6.10;;;2.73;;
11078;SDS011;5592;49.234;7.268;2023-04-03T02:42:11;4.00;;;2.70;;
11078;SDS011;5592;49.234;7.268;2023-04-03T02:44:37;3.10;;;2.60;;
11078;SDS011;5592;49.234;7.268;2023-04-03T02:47:04;3.90;;;2.70;;
11078;SDS011;5592;49.234;7.268;2023-04-03T02:49:30;2.63;;;2.30;;
11078;SDS011;5592;49.234;7.268;2023-04-03T02:51:55;4.60;;;2.13;;
11078;SDS011;5592;49.234;7.268;2023-04-03T02:54:21;4.00;;;2.70;;
11078;SDS011;5592;49.234;7.268;2023-04-03T02:56:48;5.10;;;2.30;;
11078;SDS011;5592;49.234;7.268;2023-04-03T02:59:14;3.77;;;2.90;;
11078;SDS011;5592;49.234;7.268;2023-04-03T03:01:39;3.00;;;2.13;;
11078;SDS011;5592;49.234;7.268;2023-04-03T03:04:05;2.93;;;2.63;;
11078;SDS011;5592;49.234;7.268;2023-04-03T03:06:30;2.70;;;2.43;;
11078;SDS011;5592;49.234;7.268;2023-04-03T03:08:56;2.50;;;2.30;;
11078;SDS011;5592;49.234;7.268;2023-04-03T03:11:21;3.87;;;2.70;;
11078;SDS011;5592;49.234;7.268;2023-04-03T03:13:47;5.23;;;2.30;;
11078;SDS011;5592;49.234;7.268;2023-04-03T03:16:13;4.13;;;2.70;;
11078;SDS011;5592;49.234;7.268;2023-04-03T03:18:38;3.20;;;2.70;;
11078;SDS011;5592;49.234;7.268;2023-04-03T03:21:04;3.10;;;2.50;;
11078;SDS011;5592;49.234;7.268;2023-04-03T03:23:30;6.30;;;2.30;;
11078;SDS011;5592;49.234;7.268;2023-04-03T03:26:01;4.93;;;2.67;;
11078;SDS011;5592;49.234;7.268;2023-04-03T03:28:29;8.70;;;2.90;;
11078;SDS011;5592;49.234;7.268;2023-04-03T03:30:55;3.03;;;2.73;;
11078;SDS011;5592;49.234;7.268;2023-04-03T03:33:25;3.60;;;2.60;;
11078;SDS011;5592;49.234;7.268;2023-04-03T03:35:51;4.10;;;2.40;;
11078;SDS011;5592;49.234;7.268;2023-04-03T03:38:18;4.53;;;2.90;;
11078;SDS011;5592;49.234;7.268;2023-04-03T03:40:44;3.90;;;2.63;;
11078;SDS011;5592;49.234;7.268;2023-04-03T03:43:11;3.33;;;2.37;;
11078;SDS011;5592;49.234;7.268;2023-04-03T03:45:37;3.03;;;2.77;;
11078;SDS011;5592;49.234;7.268;2023-04-03T03:48:03;3.37;;;2.23;;
11078;SDS011;5592;49.234;7.268;2023-04-03T03:50:29;5.33;;;2.80;;
11078;SDS011;5592;49.234;7.268;2023-04-03T03:52:54;3.80;;;2.63;;
11078;SDS011;5592;49.234;7.268;2023-04-03T03:55:20;7.23;;;2.37;;
11078;SDS011;5592;49.234;7.268;2023-04-03T03:57:46;4.13;;;2.40;;
11078;SDS011;5592;49.234;7.268;2023-04-03T04:00:11;3.60;;;2.37;;
11078;SDS011;5592;49.234;7.268;2023-04-03T04:02:37;3.33;;;2.70;;
11078;SDS011;5592;49.234;7.268;2023-04-03T04:05:03;2.63;;;2.20;;
11078;SDS011;5592;49.234;7.268;2023-04-03T04:07:29;6.43;;;2.53;;
11078;SDS011;5592;49.234;7.268;2023-04-03T04:09:54;4.53;;;2.60;;
11078;SDS011;5592;49.234;7.268;2023-04-03T04:12:20;4.43;;;2.50;;
11078;SDS011;5592;49.234;7.268;2023-04-03T04:14:46;3.77;;;2.40;;
11078;SDS011;5592;49.234;7.268;2023-04-03T04:17:12;2.60;;;2.30;;
11078;SDS011;5592;49.234;7.268;2023-04-03T04:19:38;4.47;;;2.23;;
11078;SDS011;5592;49.234;7.268;2023-04-03T04:22:04;5.17;;;2.40;;
11078;SDS011;5592;49.234;7.268;2023-04-03T04:24:29;2.97;;;2.67;;
11078;SDS011;5592;49.234;7.268;2023-04-03T04:26:55;5.97;;;3.47;;
11078;SDS011;5592;49.234;7.268;2023-04-03T04:29:21;3.40;;;2.70;;
11078;SDS011;5592;49.234;7.268;2023-04-03T04:31:47;5.47;;;3.07;;
11078;SDS011;5592;49.234;7.268;2023-04-03T04:34:12;3.53;;;2.93;;
11078;SDS011;5592;49.234;7.268;2023-04-03T04:36:38;4.57;;;2.40;;
11078;SDS011;5592;49.234;7.268;2023-04-03T04:39:04;6.60;;;3.00;;
11078;SDS011;5592;49.234;7.268;2023-04-03T04:41:30;3.60;;;2.37;;
11078;SDS011;5592;49.234;7.268;2023-04-03T04:43:56;3.57;;;2.67;;
11078;SDS011;5592;49.234;7.268;2023-04-03T04:46:22;3.00;;;2.63;;
11078;SDS011;5592;49.234;7.268;2023-04-03T04:48:47;4.30;;;2.80;;
11078;SDS011;5592;49.234;7.268;2023-04-03T04:51:13;5.93;;;2.90;;
11078;SDS011;5592;49.234;7.268;2023-04-03T04:53:40;4.17;;;2.40;;
11078;SDS011;5592;49.234;7.268;2023-04-03T04:56:05;2.40;;;2.20;;
11078;SDS011;5592;49.234;7.268;2023-04-03T04:58:31;5.23;;;2.43;;
11078;SDS011;5592;49.234;7.268;2023-04-03T05:00:58;4.40;;;2.80;;
11078;SDS011;5592;49.234;7.268;2023-04-03T05:03:25;6.47;;;2.53;;
11078;SDS011;5592;49.234;7.268;2023-04-03T05:05:50;5.10;;;2.73;;
11078;SDS011;5592;49.234;7.268;2023-04-03T05:08:16;2.83;;;2.40;;
11078;SDS011;5592;49.234;7.268;2023-04-03T05:10:41;3.60;;;2.00;;
11078;SDS011;5592;49.234;7.268;2023-04-03T05:13:07;7.03;;;2.73;;
11078;SDS011;5592;49.234;7.268;2023-04-03T05:15:33;8.30;;;2.50;;
11078;SDS011;5592;49.234;7.268;2023-04-03T05:17:58;3.23;;;2.27;;
11078;SDS011;5592;49.234;7.268;2023-04-03T05:20:24;3.23;;;2.43;;
11078;SDS011;5592;49.234;7.268;2023-04-03T05:22:50;9.30;;;2.70;;
11078;SDS011;5592;49.234;7.268;2023-04-03T05:25:15;4.30;;;2.20;;
11078;SDS011;5592;49.234;7.268;2023-04-03T05:27:41;5.20;;;2.87;;
11078;SDS011;5592;49.234;7.268;2023-04-03T05:30:07;3.33;;;2.17;;
11078;SDS011;5592;49.234;7.268;2023-04-03T05:32:33;4.60;;;2.20;;
11078;SDS011;5592;49.234;7.268;2023-04-03T05:34:58;3.23;;;2.40;;
11078;SDS011;5592;49.234;7.268;2023-04-03T05:37:24;4.97;;;2.00;;
11078;SDS011;5592;49.234;7.268;2023-04-03T05:39:49;3.80;;;1.97;;
11078;SDS011;5592;49.234;7.268;2023-04-03T05:42:15;2.00;;;1.80;;
11078;SDS011;5592;49.234;7.268;2023-04-03T05:44:42;6.23;;;2.30;;
11078;SDS011;5592;49.234;7.268;2023-04-03T05:47:07;5.63;;;2.40;;
11078;SDS011;5592;49.234;7.268;2023-04-03T05:49:33;2.37;;;1.73;;
11078;SDS011;5592;49.234;7.268;2023-04-03T05:52:00;5.77;;;2.37;;
11078;SDS011;5592;49.234;7.268;2023-04-03T05:54:27;3.10;;;1.87;;
11078;SDS011;5592;49.234;7.268;2023-04-03T05:56:54;4.27;;;2.23;;
11078;SDS011;5592;49.234;7.268;2023-04-03T05:59:20;4.77;;;2.17;;
11078;SDS011;5592;49.234;7.268;2023-04-03T06:01:46;3.13;;;1.97;;
11078;SDS011;5592;49.234;7.268;2023-04-03T06:04:12;2.17;;;1.60;;
11078;SDS011;5592;49.234;7.268;2023-04-03T06:06:49;3.93;;;2.13;;
11078;SDS011;5592;49.234;7.268;2023-04-03T06:09:18;5.87;;;2.10;;
11078;SDS011;5592;49.234;7.268;2023-04-03T06:11:44;2.37;;;1.73;;
11078;SDS011;5592;49.234;7.268;2023-04-03T06:14:11;2.17;;;1.63;;
11078;SDS011;5592;49.234;7.268;2023-04-03T06:16:37;2.03;;;1.67;;
11078;SDS011;5592;49.234;7.268;2023-04-03T06:19:04;2.53;;;1.90;;
11078;SDS011;5592;49.234;7.268;2023-04-03T06:21:30;3.40;;;1.70;;
11078;SDS011;5592;49.234;7.268;2023-04-03T06:23:56;2.30;;;1.90;;
11078;SDS011;5592;49.234;7.268;2023-04-03T06:26:22;2.20;;;1.50;;
11078;SDS011;5592;49.234;7.268;2023-04-03T06:28:47;5.07;;;2.40;;
11078;SDS011;5592;49.234;7.268;2023-04-03T06:31:13;2.63;;;1.93;;
11078;SDS011;5592;49.234;7.268;2023-04-03T06:33:39;2.93;;;1.60;;
11078;SDS011;5592;49.234;7.268;2023-04-03T06:36:05;3.20;;;1.43;;
11078;SDS011;5592;49.234;7.268;2023-04-03T06:38:32;2.80;;;2.10;;
11078;SDS011;5592;49.234;7.268;2023-04-03T06:40:58;3.10;;;2.27;;
11078;SDS011;5592;49.234;7.268;2023-04-03T06:43:25;2.70;;;1.77;;
11078;SDS011;5592;49.234;7.268;2023-04-03T06:45:51;2.00;;;1.50;;
11078;SDS011;5592;49.234;7.268;2023-04-03T06:48:16;3.53;;;1.60;;
11078;SDS011;5592;49.234;7.268;2023-04-03T06:50:42;1.90;;;1.50;;
11078;SDS011;5592;49.234;7.268;2023-04-03T06:53:08;1.80;;;1.53;;
11078;SDS011;5592;49.234;7.268;2023-04-03T06:55:33;3.33;;;1.50;;
11078;SDS011;5592;49.234;7.268;2023-04-03T06:57:59;2.93;;;1.77;;
11078;SDS011;5592;49.234;7.268;2023-04-03T07:00:25;3.60;;;1.70;;
11078;SDS011;5592;49.234;7.268;2023-04-03T07:02:51;1.63;;;1.50;;
11078;SDS011;5592;49.234;7.268;2023-04-03T07:05:16;3.77;;;1.50;;
11078;SDS011;5592;49.234;7.268;2023-04-03T07:07:43;2.30;;;1.50;;
11078;SDS011;5592;49.234;7.268;2023-04-03T07:10:08;3.07;;;1.80;;
11078;SDS011;5592;49.234;7.268;2023-04-03T07:12:35;2.77;;;1.40;;
11078;SDS011;5592;49.234;7.268;2023-04-03T07:15:00;1.83;;;1.50;;
11078;SDS011;5592;49.234;7.268;2023-04-03T07:17:26;2.93;;;1.73;;
11078;SDS011;5592;49.234;7.268;2023-04-03T07:19:52;2.03;;;1.53;;
11078;SDS011;5592;49.234;7.268;2023-04-03T07:22:17;3.70;;;1.60;;
11078;SDS011;5592;49.234;7.268;2023-04-03T07:24:43;3.13;;;1.60;;
11078;SDS011;5592;49.234;7.268;2023-04-03T07:27:09;1.83;;;1.50;;
11078;SDS011;5592;49.234;7.268;2023-04-03T07:29:35;2.80;;;1.83;;
11078;SDS011;5592;49.234;7.268;2023-04-03T07:32:01;3.60;;;2.20;;
11078;SDS011;5592;49.234;7.268;2023-04-03T07:34:27;3.93;;;2.13;;
11078;SDS011;5592;49.234;7.268;2023-04-03T07:36:53;3.47;;;1.70;;
11078;SDS011;5592;49.234;7.268;2023-04-03T07:39:19;2.10;;;1.47;;
11078;SDS011;5592;49.234;7.268;2023-04-03T07:41:45;3.80;;;1.70;;
11078;SDS011;5592;49.234;7.268;2023-04-03T07:44:10;2.80;;;2.13;;
11078;SDS011;5592;49.234;7.268;2023-04-03T07:46:36;3.10;;;1.67;;
11078;SDS011;5592;49.234;7.268;2023-04-03T07:49:03;4.70;;;2.37;;
11078;SDS011;5592;49.234;7.268;2023-04-03T07:51:28;3.47;;;1.70;;
11078;SDS011;5592;49.234;7.268;2023-04-03T07:53:54;3.00;;;1.90;;
11078;SDS011;5592;49.234;7.268;2023-04-03T07:56:20;4.60;;;2.20;;
11078;SDS011;5592;49.234;7.268;2023-04-03T07:58:47;3.13;;;1.73;;
11078;SDS011;5592;49.234;7.268;2023-04-03T08:01:13;3.17;;;2.30;;
11078;SDS011;5592;49.234;7.268;2023-04-03T08:03:38;3.87;;;1.60;;
11078;SDS011;5592;49.234;7.268;2023-04-03T08:06:05;3.93;;;1.80;;
11078;SDS011;5592;49.234;7.268;2023-04-03T08:08:32;3.30;;;2.20;;
11078;SDS011;5592;49.234;7.268;2023-04-03T08:10:59;3.37;;;1.90;;
11078;SDS011;5592;49.234;7.268;2023-04-03T08:13:26;2.80;;;1.87;;
11078;SDS011;5592;49.234;7.268;2023-04-03T08:15:51;3.47;;;1.93;;
11078;SDS011;5592;49.234;7.268;2023-04-03T08:18:17;3.97;;;2.20;;
11078;SDS011;5592;49.234;7.268;2023-04-03T08:20:46;2.27;;;1.57;;
11078;SDS011;5592;49.234;7.268;2023-04-03T08:23:12;4.37;;;2.00;;
11078;SDS011;5592;49.234;7.268;2023-04-03T08:25:39;3.33;;;2.07;;
11078;SDS011;5592;49.234;7.268;2023-04-03T08:28:05;2.70;;;1.23;;
11078;SDS011;5592;49.234;7.268;2023-04-03T08:30:31;2.20;;;1.30;;
11078;SDS011;5592;49.234;7.268;2023-04-03T08:33:00;3.57;;;1.60;;
11078;SDS011;5592;49.234;7.268;2023-04-03T08:35:26;2.33;;;1.53;;
11078;SDS011;5592;49.234;7.268;2023-04-03T08:37:52;3.50;;;1.80;;
11078;SDS011;5592;49.234;7.268;2023-04-03T08:40:18;2.30;;;1.40;;
11078;SDS011;5592;49.234;7.268;2023-04-03T08:42:46;3.57;;;1.67;;
11078;SDS011;5592;49.234;7.268;2023-04-03T08:48:08;5.73;;;1.87;;
11078;SDS011;5592;49.234;7.268;2023-04-03T08:50:40;3.13;;;1.60;;
11078;SDS011;5592;49.234;7.268;2023-04-03T08:53:19;2.43;;;1.37;;
11078;SDS011;5592;49.234;7.268;2023-04-03T08:55:49;2.20;;;1.70;;
11078;SDS011;5592;49.234;7.268;2023-04-03T08:58:16;3.77;;;2.07;;
11078;SDS011;5592;49.234;7.268;2023-04-03T09:03:22;5.07;;;1.63;;
11078;SDS011;5592;49.234;7.268;2023-04-03T09:06:05;3.03;;;1.77;;
11078;SDS011;5592;49.234;7.268;2023-04-03T09:08:51;2.73;;;1.53;;
11078;SDS011;5592;49.234;7.268;2023-04-03T09:14:14;2.63;;;1.33;;
11078;SDS011;5592;49.234;7.268;2023-04-03T09:19:53;10.43;;;1.70;;
11078;SDS011;5592;49.234;7.268;2023-04-03T09:22:24;2.90;;;1.40;;
11078;SDS011;5592;49.234;7.268;2023-04-03T09:24:57;1.80;;;1.30;;
11078;SDS011;5592;49.234;7.268;2023-04-03T09:27:33;2.43;;;1.40;;
11078;SDS011;5592;49.234;7.268;2023-04-03T09:29:59;3.80;;;1.30;;
11078;SDS011;5592;49.234;7.268;2023-04-03T09:32:26;1.90;;;1.40;;
11078;SDS011;5592;49.234;7.268;2023-04-03T09:35:02;2.60;;;1.10;;
11078;SDS011;5592;49.234;7.268;2023-04-03T09:37:52;5.13;;;1.83;;
11078;SDS011;5592;49.234;7.268;2023-04-03T09:43:00;2.37;;;1.13;;
11078;SDS011;5592;49.234;7.268;2023-04-03T09:45:32;2.13;;;1.43;;
11078;SDS011;5592;49.234;7.268;2023-04-03T09:48:12;3.70;;;1.60;;
11078;SDS011;5592;49.234;7.268;2023-04-03T09:58:40;4.40;;;1.73;;
11078;SDS011;5592;49.234;7.268;2023-04-03T10:06:34;4.87;;;1.70;;
11078;SDS011;5592;49.234;7.268;2023-04-03T10:09:06;2.20;;;1.30;;
11078;SDS011;5592;49.234;7.268;2023-04-03T10:12:26;8.50;;;2.10;;
11078;SDS011;5592;49.234;7.268;2023-04-03T10:14:33;3.50;;;1.50;;
11078;SDS011;5592;49.234;7.268;2023-04-03T10:17:09;3.73;;;1.70;;
11078;SDS011;5592;49.234;7.268;2023-04-03T10:19:52;3.63;;;1.93;;
11078;SDS011;5592;49.234;7.268;2023-04-03T10:25:16;3.23;;;1.43;;
11078;SDS011;5592;49.234;7.268;2023-04-03T10:28:00;3.43;;;1.17;;
11078;SDS011;5592;49.234;7.268;2023-04-03T10:30:50;2.50;;;1.70;;
11078;SDS011;5592;49.234;7.268;2023-04-03T10:33:53;2.07;;;1.47;;
11078;SDS011;5592;49.234;7.268;2023-04-03T10:44:16;2.13;;;1.40;;
11078;SDS011;5592;49.234;7.268;2023-04-03T10:52:37;3.40;;;1.70;;
11078;SDS011;5592;49.234;7.268;2023-04-03T10:58:04;3.87;;;1.60;;
11078;SDS011;5592;49.234;7.268;2023-04-03T11:00:44;3.03;;;1.67;;
11078;SDS011;5592;49.234;7.268;2023-04-03T11:03:15;4.70;;;1.90;;
11078;SDS011;5592;49.234;7.268;2023-04-03T11:05:53;5.23;;;1.50;;
11078;SDS011;5592;49.234;7.268;2023-04-03T11:10:55;2.83;;;1.80;;
11078;SDS011;5592;49.234;7.268;2023-04-03T11:13:30;2.07;;;1.50;;
11078;SDS011;5592;49.234;7.268;2023-04-03T11:16:03;2.57;;;1.23;;
11078;SDS011;5592;49.234;7.268;2023-04-03T11:24:05;6.37;;;1.50;;
11078;SDS011;5592;49.234;7.268;2023-04-03T11:26:41;5.00;;;1.63;;
11078;SDS011;5592;49.234;7.268;2023-04-03T11:29:13;3.77;;;1.67;;
11078;SDS011;5592;49.234;7.268;2023-04-03T11:32:06;3.23;;;1.60;;
11078;SDS011;5592;49.234;7.268;2023-04-03T11:34:53;1.80;;;1.40;;
11078;SDS011;5592;49.234;7.268;2023-04-03T11:37:34;3.23;;;1.77;;
11078;SDS011;5592;49.234;7.268;2023-04-03T11:40:12;4.90;;;1.80;;
11078;SDS011;5592;49.234;7.268;2023-04-03T11:43:07;3.87;;;1.50;;
11078;SDS011;5592;49.234;7.268;2023-04-03T11:46:05;3.17;;;1.50;;
11078;SDS011;5592;49.234;7.268;2023-04-03T11:51:01;2.50;;;1.37;;
11078;SDS011;5592;49.234;7.268;2023-04-03T11:53:47;2.40;;;1.33;;
11078;SDS011;5592;49.234;7.268;2023-04-03T12:01:42;2.83;;;1.67;;
11078;SDS011;5592;49.234;7.268;2023-04-03T12:04:12;1.87;;;1.60;;
11078;SDS011;5592;49.234;7.268;2023-04-03T12:09:21;3.40;;;1.60;;
11078;SDS011;5592;49.234;7.268;2023-04-03T12:11:56;4.90;;;1.77;;
11078;SDS011;5592;49.234;7.268;2023-04-03T12:14:25;2.60;;;1.60;;
11078;SDS011;5592;49.234;7.268;2023-04-03T12:16:55;3.53;;;1.30;;
11078;SDS011;5592;49.234;7.268;2023-04-03T12:19:30;5.37;;;1.60;;
11078;SDS011;5592;49.234;7.268;2023-04-03T12:22:12;2.90;;;1.90;;
11078;SDS011;5592;49.234;7.268;2023-04-03T12:24:42;7.20;;;2.30;;
11078;SDS011;5592;49.234;7.268;2023-04-03T12:27:32;3.40;;;1.70;;
11078;SDS011;5592;49.234;7.268;2023-04-03T12:30:16;1.80;;;1.30;;
11078;SDS011;5592;49.234;7.268;2023-04-03T12:46:55;3.60;;;1.50;;
11078;SDS011;5592;49.234;7.268;2023-04-03T12:52:02;3.90;;;1.53;;
11078;SDS011;5592;49.234;7.268;2023-04-03T12:54:49;1.90;;;1.53;;
11078;SDS011;5592;49.234;7.268;2023-04-03T12:57:18;1.80;;;1.30;;
11078;SDS011;5592;49.234;7.268;2023-04-03T12:59:45;2.93;;;1.40;;
11078;SDS011;5592;49.234;7.268;2023-04-03T13:04:55;2.60;;;1.40;;
11078;SDS011;5592;49.234;7.268;2023-04-03T13:07:41;3.40;;;1.77;;
11078;SDS011;5592;49.234;7.268;2023-04-03T13:12:56;6.63;;;1.50;;
11078;SDS011;5592;49.234;7.268;2023-04-03T13:15:29;3.50;;;1.40;;
11078;SDS011;5592;49.234;7.268;2023-04-03T13:18:04;2.07;;;1.30;;
11078;SDS011;5592;49.234;7.268;2023-04-03T13:20:31;2.83;;;1.27;;
11078;SDS011;5592;49.234;7.268;2023-04-03T13:23:01;8.60;;;1.97;;
11078;SDS011;5592;49.234;7.268;2023-04-03T13:25:31;2.10;;;1.50;;
11078;SDS011;5592;49.234;7.268;2023-04-03T13:27:59;3.57;;;1.53;;
11078;SDS011;5592;49.234;7.268;2023-04-03T13:30:28;2.10;;;1.37;;
11078;SDS011;5592;49.234;7.268;2023-04-03T13:33:00;4.03;;;1.73;;
11078;SDS011;5592;49.234;7.268;2023-04-03T13:35:29;4.40;;;1.50;;
11078;SDS011;5592;49.234;7.268;2023-04-03T13:37:58;3.73;;;1.50;;
11078;SDS011;5592;49.234;7.268;2023-04-03T13:40:25;2.37;;;1.30;;
11078;SDS011;5592;49.234;7.268;2023-04-03T13:42:59;3.20;;;1.60;;
11078;SDS011;5592;49.234;7.268;2023-04-03T13:45:30;5.73;;;2.03;;
11078;SDS011;5592;49.234;7.268;2023-04-03T13:48:14;2.93;;;1.30;;
11078;SDS011;5592;49.234;7.268;2023-04-03T13:51:02;3.30;;;1.27;;
11078;SDS011;5592;49.234;7.268;2023-04-03T13:53:43;3.23;;;1.90;;
11078;SDS011;5592;49.234;7.268;2023-04-03T13:56:18;3.47;;;1.83;;
11078;SDS011;5592;49.234;7.268;2023-04-03T13:59:22;3.00;;;1.57;;
11078;SDS011;5592;49.234;7.268;2023-04-03T14:01:43;6.50;;;1.73;;
11078;SDS011;5592;49.234;7.268;2023-04-03T14:04:19;5.77;;;1.80;;
11078;SDS011;5592;49.234;7.268;2023-04-03T14:06:53;4.13;;;1.70;;
11078;SDS011;5592;49.234;7.268;2023-04-03T14:09:19;3.03;;;2.27;;
11078;SDS011;5592;49.234;7.268;2023-04-03T14:11:47;2.90;;;1.50;;
11078;SDS011;5592;49.234;7.268;2023-04-03T14:16:52;1.93;;;1.33;;
11078;SDS011;5592;49.234;7.268;2023-04-03T14:19:21;3.37;;;1.30;;
11078;SDS011;5592;49.234;7.268;2023-04-03T14:21:53;4.40;;;1.10;;
11078;SDS011;5592;49.234;7.268;2023-04-03T14:24:20;3.80;;;1.47;;
11078;SDS011;5592;49.234;7.268;2023-04-03T14:26:46;2.00;;;1.43;;
11078;SDS011;5592;49.234;7.268;2023-04-03T14:29:13;3.00;;;1.63;;
11078;SDS011;5592;49.234;7.268;2023-04-03T14:31:40;4.43;;;1.93;;
11078;SDS011;5592;49.234;7.268;2023-04-03T14:34:09;3.97;;;2.00;;
11078;SDS011;5592;49.234;7.268;2023-04-03T14:36:39;5.80;;;1.60;;
11078;SDS011;5592;49.234;7.268;2023-04-03T14:39:06;3.20;;;1.30;;
11078;SDS011;5592;49.234;7.268;2023-04-03T14:41:33;2.67;;;1.30;;
11078;SDS011;5592;49.234;7.268;2023-04-03T14:43:59;3.90;;;1.37;;
11078;SDS011;5592;49.234;7.268;2023-04-03T14:48:53;4.57;;;1.50;;
11078;SDS011;5592;49.234;7.268;2023-04-03T14:51:19;3.77;;;1.67;;
11078;SDS011;5592;49.234;7.268;2023-04-03T14:53:45;3.63;;;1.50;;
11078;SDS011;5592;49.234;7.268;2023-04-03T14:56:15;2.60;;;1.30;;
11078;SDS011;5592;49.234;7.268;2023-04-03T14:58:48;2.87;;;1.50;;
11078;SDS011;5592;49.234;7.268;2023-04-03T15:01:16;2.93;;;1.20;;
11078;SDS011;5592;49.234;7.268;2023-04-03T15:03:42;2.77;;;1.77;;
11078;SDS011;5592;49.234;7.268;2023-04-03T15:06:11;1.83;;;1.50;;
11078;SDS011;5592;49.234;7.268;2023-04-03T15:08:38;3.70;;;1.80;;
11078;SDS011;5592;49.234;7.268;2023-04-03T15:11:06;4.40;;;1.53;;
11078;SDS011;5592;49.234;7.268;2023-04-03T15:13:32;1.97;;;1.27;;
11078;SDS011;5592;49.234;7.268;2023-04-03T15:15:58;3.63;;;1.50;;
11078;SDS011;5592;49.234;7.268;2023-04-03T15:18:24;4.43;;;1.40;;
11078;SDS011;5592;49.234;7.268;2023-04-03T15:20:52;2.60;;;1.30;;
11078;SDS011;5592;49.234;7.268;2023-04-03T15:23:18;2.00;;;1.50;;
11078;SDS011;5592;49.234;7.268;2023-04-03T15:25:45;5.07;;;1.50;;
11078;SDS011;5592;49.234;7.268;2023-04-03T15:28:15;2.93;;;1.43;;
11078;SDS011;5592;49.234;7.268;2023-04-03T15:30:43;1.67;;;1.50;;
11078;SDS011;5592;49.234;7.268;2023-04-03T15:33:08;7.20;;;1.67;;
11078;SDS011;5592;49.234;7.268;2023-04-03T15:35:34;5.60;;;3.50;;
11078;SDS011;5592;49.234;7.268;2023-04-03T15:38:00;3.10;;;1.33;;
11078;SDS011;5592;49.234;7.268;2023-04-03T15:40:25;5.97;;;1.60;;
11078;SDS011;5592;49.234;7.268;2023-04-03T15:42:51;2.40;;;1.40;;
11078;SDS011;5592;49.234;7.268;2023-04-03T15:45:16;5.90;;;1.80;;
11078;SDS011;5592;49.234;7.268;2023-04-03T15:47:42;3.07;;;1.60;;
11078;SDS011;5592;49.234;7.268;2023-04-03T15:50:08;2.97;;;2.20;;
11078;SDS011;5592;49.234;7.268;2023-04-03T15:52:34;2.27;;;1.50;;
11078;SDS011;5592;49.234;7.268;2023-04-03T15:55:00;5.00;;;1.80;;
11078;SDS011;5592;49.234;7.268;2023-04-03T15:57:26;4.93;;;2.10;;
11078;SDS011;5592;49.234;7.268;2023-04-03T15:59:51;2.00;;;1.30;;
11078;SDS011;5592;49.234;7.268;2023-04-03T16:02:18;1.33;;;1.20;;
11078;SDS011;5592;49.234;7.268;2023-04-03T16:04:43;3.27;;;1.23;;
11078;SDS011;5592;49.234;7.268;2023-04-03T16:07:09;3.30;;;1.70;;
11078;SDS011;5592;49.234;7.268;2023-04-03T16:09:35;2.33;;;1.40;;
11078;SDS011;5592;49.234;7.268;2023-04-03T16:12:01;5.10;;;1.37;;
11078;SDS011;5592;49.234;7.268;2023-04-03T16:14:27;1.63;;;1.10;;
11078;SDS011;5592;49.234;7.268;2023-04-03T16:16:54;10.53;;;1.63;;
11078;SDS011;5592;49.234;7.268;2023-04-03T16:19:20;5.53;;;1.20;;
11078;SDS011;5592;49.234;7.268;2023-04-03T16:21:46;1.47;;;1.23;;
11078;SDS011;5592;49.234;7.268;2023-04-03T16:24:12;4.30;;;1.87;;
11078;SDS011;5592;49.234;7.268;2023-04-03T16:26:37;2.20;;;1.30;;
11078;SDS011;5592;49.234;7.268;2023-04-03T16:29:03;3.93;;;1.70;;
11078;SDS011;5592;49.234;7.268;2023-04-03T16:31:29;4.30;;;1.50;;
11078;SDS011;5592;49.234;7.268;2023-04-03T16:33:57;4.50;;;1.40;;
11078;SDS011;5592;49.234;7.268;2023-04-03T16:36:23;2.33;;;1.13;;
11078;SDS011;5592;49.234;7.268;2023-04-03T16:38:50;5.40;;;1.77;;
11078;SDS011;5592;49.234;7.268;2023-04-03T16:41:16;4.43;;;1.83;;
11078;SDS011;5592;49.234;7.268;2023-04-03T16:43:43;4.43;;;1.60;;
11078;SDS011;5592;49.234;7.268;2023-04-03T16:46:09;5.67;;;2.60;;
11078;SDS011;5592;49.234;7.268;2023-04-03T16:48:34;2.37;;;1.60;;